Flight Track Log - Related Links

Times and Time Zones

All times are in EDT time to prevent confusion due to time zone crossing. See the TCF3496 flight status page for this flight to view local times or setup timezone preferences in your user account.

Time Position Orientation Groundspeed Altitude Reporting Facility
EDT Latitude Longitude Course Direction KTS MPH feet Rate Location/Type
Sun 08:47:54 PM 40.7167 -74.1500 270° West 147 169 1,300  Level New York TRACON
Sun 08:48:54 PM 40.7500 -74.1500 360° North 204 235 3,000 2,333 Climbing New York TRACON
Sun 08:50:00 PM 40.6833 -74.5118 270° West  Level FlightAware Approximate
Sun 08:50:00 PM 40.7500 -74.2333 270° West 220 253 6,200  Level New York TRACON
Sun 08:51:00 PM 40.6834 -74.6269 270° West  Level FlightAware Approximate
Sun 08:52:00 PM 40.6833 -74.7419 270° West  Level FlightAware Approximate
Sun 08:52:28 PM 40.7328 -74.4681 265° West 275 316 11,900  Level New York Center
Sun 08:53:28 PM 40.7253 -74.5772 265° West 292 336 15,200 2,650 Climbing New York Center
Sun 08:54:28 PM 40.7178 -74.6753 264° West 292 336 17,200 1,950 Climbing New York Center
Sun 08:55:28 PM 40.7081 -74.7844 263° West 306 352 19,100 1,950 Climbing New York Center
Sun 08:56:28 PM 40.7000 -74.8961 265° West 312 359 21,100 1,800 Climbing New York Center
Sun 08:57:28 PM 40.6894 -75.0131 263° West 317 365 22,700 1,550 Climbing New York Center
Sun 08:58:28 PM 40.6625 -75.1264 253° West 322 371 24,200 1,450 Climbing New York Center
Sun 08:59:28 PM 40.6128 -75.2325 238° Southwest 330 380 25,600 1,250 Climbing New York Center
Sun 09:00:28 PM 40.5625 -75.3442 239° Southwest 340 391 26,700 1,000 Climbing New York Center
Sun 09:01:28 PM 40.5125 -75.4553 239° Southwest 346 398 27,600 950 Climbing New York Center
Sun 09:02:28 PM 40.4600 -75.5664 238° Southwest 357 411 28,600 950 Climbing New York Center
Sun 09:03:28 PM 40.4050 -75.6853 239° Southwest 364 419 29,500 750 Climbing New York Center
Sun 09:04:28 PM 40.3500 -75.8039 239° Southwest 377 434 30,100 650 Climbing New York Center
Sun 09:05:28 PM 40.2928 -75.9250 238° Southwest 383 441 30,800 750 Climbing New York Center
Sun 09:06:28 PM 40.2375 -76.0458 239° Southwest 389 448 31,600 800 Climbing New York Center
Sun 09:07:28 PM 40.1800 -76.1611 237° Southwest 389 448 32,400 800 Climbing New York Center
Sun 09:08:28 PM 40.1244 -76.2789 238° Southwest 384 442 33,200 800 Climbing New York Center
Sun 09:09:28 PM 40.0856 -76.4008 247° West 384 442 34,000 673 Climbing New York Center
Sun 09:11:53 PM 39.9983 -76.6936 249° West 362 417 35,500 585 Climbing Washington Center
Sun 09:12:53 PM 39.9636 -76.8150 250° West 362 417 36,000 248 Climbing Washington Center
Sun 09:13:54 PM 39.9228 -76.9389 247° West 362 417 36,000  Level Washington Center
Sun 09:14:55 PM 39.8881 -77.0653 250° West 367 422 36,000  Level Washington Center
Sun 09:15:53 PM 39.8489 -77.1914 248° West 372 428 36,000  Level Washington Center
Sun 09:16:54 PM 39.8117 -77.3175 249° West 372 428 36,000  Level Washington Center
Sun 09:17:54 PM 39.7725 -77.4408 248° West 372 428 36,000  Level Washington Center
Sun 09:18:53 PM 39.7350 -77.5667 249° West 372 428 36,000  Level Washington Center
Sun 09:19:55 PM 39.6975 -77.6925 249° West 372 428 36,000  Level Washington Center
Sun 09:20:53 PM 39.6600 -77.8153 248° West 372 428 36,000  Level Washington Center
Sun 09:21:54 PM 39.6222 -77.9381 248° West 372 428 36,000  Level Washington Center
Sun 09:22:54 PM 39.5842 -78.0606 248° West 372 428 36,000  Level Washington Center
Sun 09:23:55 PM 39.5461 -78.1858 249° West 372 428 36,000  Level Washington Center
Sun 09:24:54 PM 39.5061 -78.3081 247° West 372 428 36,000  Level Washington Center
Sun 09:25:54 PM 39.4678 -78.4303 248° West 372 428 36,000  Level Washington Center
Sun 09:26:55 PM 39.4294 -78.5525 248° West 372 428 36,000  Level Washington Center
Sun 09:27:54 PM 39.3908 -78.6744 248° West 372 428 36,000  Level Washington Center
Sun 09:28:55 PM 39.3522 -78.7936 247° West 372 428 36,000  Level Washington Center
Sun 09:29:53 PM 39.3114 -78.9206 247° West 377 434 36,000  Level Washington Center
Sun 09:30:54 PM 39.2725 -79.0422 248° West 377 434 36,000  Level Washington Center
Sun 09:31:54 PM 39.2336 -79.1636 248° West 372 428 36,000  Level Washington Center
Sun 09:32:56 PM 39.1986 -79.2878 250° West 372 428 36,000  Level Washington Center
Sun 09:33:53 PM 39.1592 -79.4089 247° West 372 428 36,000  Level Washington Center
Sun 09:34:54 PM 39.1178 -79.5325 247° West 372 428 36,000  Level Washington Center
Sun 09:35:55 PM 39.0761 -79.6586 247° West 372 428 36,000  Level Washington Center
Sun 09:36:55 PM 39.0342 -79.7844 247° West 380 437 36,000  Level Washington Center
Sun 09:37:56 PM 38.9944 -79.9078 248° West 385 443 36,000  Level Washington Center
Sun 09:38:27 PM 38.9700 -79.9661 242° Southwest 374 430 36,000  Level Indianapolis Center
Sun 09:39:28 PM 38.9303 -80.0836 247° West 374 430 36,000  Level Indianapolis Center
Sun 09:40:29 PM 38.8808 -80.2306 247° West 373 429 36,000  Level Indianapolis Center
Sun 09:41:30 PM 38.8406 -80.3508 247° West 373 429 36,000  Level Indianapolis Center
Sun 09:42:32 PM 38.7986 -80.4722 246° West 372 428 36,000  Level Indianapolis Center
Sun 09:43:33 PM 38.7586 -80.5925 247° West 371 427 36,000  Level Indianapolis Center
Sun 09:44:34 PM 38.7167 -80.7131 246° West 370 426 36,000  Level Indianapolis Center
Sun 09:45:36 PM 38.6758 -80.8333 247° West 370 426 36,000  Level Indianapolis Center
Sun 09:46:37 PM 38.6350 -80.9533 246° West 370 426 36,000  Level Indianapolis Center
Sun 09:47:38 PM 38.5936 -81.0722 246° West 369 425 36,000  Level Indianapolis Center
Sun 09:48:39 PM 38.5519 -81.1917 246° West 367 422 36,000  Level Indianapolis Center
Sun 09:49:41 PM 38.5108 -81.3133 247° West 367 422 36,000  Level Indianapolis Center
Sun 09:50:42 PM 38.4689 -81.4344 246° West 368 423 36,000  Level Indianapolis Center
Sun 09:51:43 PM 38.4258 -81.5550 246° West 368 423 36,000  Level Indianapolis Center
Sun 09:52:44 PM 38.3836 -81.6750 246° West 368 423 36,000  Level Indianapolis Center
Sun 09:53:46 PM 38.3428 -81.7939 246° West 367 422 36,000  Level Indianapolis Center
Sun 09:54:47 PM 38.3094 -81.9156 251° West 366 421 36,000  Level Indianapolis Center
Sun 09:55:48 PM 38.2750 -82.0361 250° West 365 420 36,000  Level Indianapolis Center
Sun 09:56:49 PM 38.2333 -82.1806 250° West 362 417 36,000  Level Indianapolis Center
Sun 09:57:50 PM 38.1997 -82.2992 250° West 361 415 36,000  Level Indianapolis Center
Sun 09:58:52 PM 38.1661 -82.4186 250° West 361 415 36,000  Level Indianapolis Center
Sun 09:59:53 PM 38.1342 -82.5286 250° West 359 413 36,000  Level Indianapolis Center
Sun 10:00:54 PM 38.1014 -82.6483 251° West 358 412 36,000  Level Indianapolis Center
Sun 10:01:55 PM 38.0661 -82.7647 249° West 358 412 36,000  Level Indianapolis Center
Sun 10:02:56 PM 38.0269 -82.9008 250° West 356 410 36,000  Level Indianapolis Center
Sun 10:03:57 PM 37.9928 -83.0194 250° West 356 410 36,000  Level Indianapolis Center
Sun 10:04:58 PM 37.9581 -83.1369 249° West 356 410 36,000  Level Indianapolis Center
Sun 10:05:59 PM 37.9236 -83.2531 249° West 356 410 36,000  Level Indianapolis Center
Sun 10:07:00 PM 37.8897 -83.3711 250° West 356 410 36,000  Level Indianapolis Center
Sun 10:08:01 PM 37.8544 -83.4869 249° West 356 410 36,000  Level Indianapolis Center
Sun 10:09:02 PM 37.8192 -83.6033 249° West 356 410 36,000  Level Indianapolis Center
Sun 10:10:03 PM 37.7850 -83.7206 250° West 356 410 36,000  Level Indianapolis Center
Sun 10:11:04 PM 37.7497 -83.8372 249° West 356 410 36,000  Level Indianapolis Center
Sun 10:12:05 PM 37.7147 -83.9525 249° West 356 410 36,000  Level Indianapolis Center
Sun 10:13:06 PM 37.6800 -84.0675 249° West 355 409 36,000  Level Indianapolis Center
Sun 10:14:07 PM 37.6381 -84.2047 249° West 355 409 36,000  Level Indianapolis Center
Sun 10:15:08 PM 37.6028 -84.3225 249° West 356 410 36,000  Level Indianapolis Center
Sun 10:16:09 PM 37.5656 -84.4400 248° West 357 411 36,000  Level Indianapolis Center
Sun 10:17:10 PM 37.5308 -84.5561 249° West 357 411 36,000  Level Indianapolis Center
Sun 10:18:11 PM 37.4956 -84.6764 250° West 359 413 36,000  Level Indianapolis Center
Sun 10:19:12 PM 37.4722 -84.7961 256° West 358 412 36,000  Level Indianapolis Center
Sun 10:20:13 PM 37.4475 -84.9167 256° West 357 411 36,000  Level Indianapolis Center
Sun 10:21:14 PM 37.4231 -85.0353 255° West 354 407 36,000  Level Indianapolis Center
Sun 10:22:15 PM 37.4000 -85.1542 256° West 352 405 36,000  Level Indianapolis Center
Sun 10:23:16 PM 37.3761 -85.2717 256° West 351 404 36,000  Level Indianapolis Center
Sun 10:24:17 PM 37.3369 -85.3847 246° West 351 404 36,000  Level Indianapolis Center
Sun 10:25:18 PM 37.2964 -85.4986 246° West 351 404 36,000  Level Indianapolis Center
Sun 10:26:19 PM 37.2567 -85.6172 247° West 353 406 36,000  Level Indianapolis Center
Sun 10:27:20 PM 37.2167 -85.7311 246° West 353 406 36,000  Level Indianapolis Center
Sun 10:28:21 PM 37.1769 -85.8450 246° West 353 406 36,000  Level Indianapolis Center
Sun 10:29:22 PM 37.1378 -85.9569 246° West 353 406 36,000  Level Indianapolis Center
Sun 10:30:23 PM 37.0969 -86.0686 245° Southwest 352 405 36,000  Level Indianapolis Center
Sun 10:31:24 PM 37.0572 -86.1811 246° West 352 405 36,000  Level Indianapolis Center
Sun 10:32:24 PM 37.0169 -86.2942 246° West 352 405 36,000  Level Indianapolis Center
Sun 10:33:25 PM 36.9697 -86.4247 246° West 352 405 36,000  Level Indianapolis Center
Sun 10:34:10 PM 36.9431 -86.4997 246° West 352 405 36,000  Level Memphis Center
Sun 10:35:11 PM 36.9017 -86.6119 245° Southwest 352 405 36,000  Level Memphis Center
Sun 10:36:12 PM 36.8606 -86.7231 245° Southwest 352 405 36,000  Level Memphis Center
Sun 10:37:13 PM 36.8197 -86.8353 246° West 352 405 36,000  Level Memphis Center
Sun 10:38:14 PM 36.7783 -86.9472 245° Southwest 353 406 36,000  Level Memphis Center
Sun 10:39:15 PM 36.7372 -87.0583 245° Southwest 353 406 36,000  Level Memphis Center
Sun 10:40:16 PM 36.6967 -87.1683 245° Southwest 352 405 36,000  Level Memphis Center
Sun 10:41:17 PM 36.6556 -87.2772 245° Southwest 351 404 36,000  Level Memphis Center
Sun 10:42:18 PM 36.6147 -87.3869 245° Southwest 350 403 36,000  Level Memphis Center
Sun 10:43:18 PM 36.5739 -87.4961 245° Southwest 349 402 36,000  Level Memphis Center
Sun 10:44:19 PM 36.5264 -87.6222 245° Southwest 348 400 36,000  Level Memphis Center
Sun 10:45:20 PM 36.4856 -87.7292 245° Southwest 344 396 36,000  Level Memphis Center
Sun 10:46:21 PM 36.4450 -87.8375 245° Southwest 344 396 36,000  Level Memphis Center
Sun 10:47:22 PM 36.4053 -87.9453 245° Southwest 344 396 36,000  Level Memphis Center
Sun 10:48:23 PM 36.3692 -88.0550 248° West 343 395 36,000  Level Memphis Center
Sun 10:49:24 PM 36.3361 -88.1508 247° West 343 395 36,000  Level Memphis Center
Sun 10:50:25 PM 36.2992 -88.2586 247° West 343 395 36,000  Level Memphis Center
Sun 10:51:26 PM 36.2619 -88.3672 247° West 343 395 36,000  Level Memphis Center
Sun 10:52:27 PM 36.2247 -88.4761 247° West 343 395 36,000  Level Memphis Center
Sun 10:53:28 PM 36.1783 -88.6058 246° West 343 395 36,000  Level Memphis Center
Sun 10:54:29 PM 36.1397 -88.7150 246° West 343 395 36,000  Level Memphis Center
Sun 10:55:29 PM 36.1019 -88.8236 247° West 343 395 36,000  Level Memphis Center
Sun 10:56:30 PM 36.0633 -88.9314 246° West 343 395 36,000  Level Memphis Center
Sun 10:57:31 PM 36.0242 -89.0394 246° West 343 395 36,000  Level Memphis Center
Sun 10:58:32 PM 35.9867 -89.1481 247° West 343 395 36,000  Level Memphis Center
Sun 10:59:33 PM 35.9475 -89.2558 246° West 343 395 36,000  Level Memphis Center
Sun 11:00:34 PM 35.9114 -89.3603 247° West 335 386 36,000  Level Memphis Center
Sun 11:01:35 PM 35.8731 -89.4633 245° Southwest 332 382 36,000  Level Memphis Center
Sun 11:02:36 PM 35.8358 -89.5675 246° West 331 381 36,000  Level Memphis Center
Sun 11:03:37 PM 35.7983 -89.6717 246° West 331 381 36,000  Level Memphis Center
Sun 11:04:38 PM 35.7606 -89.7744 246° West 331 381 36,000  Level Memphis Center
Sun 11:05:38 PM 35.7225 -89.8794 246° West 331 381 36,000  Level Memphis Center
Sun 11:06:39 PM 35.6817 -89.9906 246° West 333 383 36,000  Level Memphis Center
Sun 11:07:40 PM 35.6450 -90.0944 247° West 334 384 36,000  Level Memphis Center
Sun 11:08:41 PM 35.6056 -90.1983 245° Southwest 334 384 36,000  Level Memphis Center
Sun 11:09:42 PM 35.5686 -90.3017 246° West 334 384 36,000  Level Memphis Center
Sun 11:10:43 PM 35.5308 -90.4050 246° West 334 384 36,000  Level Memphis Center
Sun 11:11:44 PM 35.4919 -90.5064 245° Southwest 334 384 36,000  Level Memphis Center
Sun 11:12:44 PM 35.4536 -90.6086 245° Southwest 333 383 36,000  Level Memphis Center
Sun 11:13:45 PM 35.4158 -90.7119 246° West 333 383 36,000  Level Memphis Center
Sun 11:14:46 PM 35.3764 -90.8150 245° Southwest 333 383 36,000  Level Memphis Center
Sun 11:15:47 PM 35.3300 -90.9389 245° Southwest 333 383 36,000  Level Memphis Center
Sun 11:16:47 PM 35.2908 -91.0414 245° Southwest 334 384 36,000  Level Memphis Center
Sun 11:17:48 PM 35.2564 -91.1378 246° West 334 384 36,000  Level Memphis Center
Sun 11:18:49 PM 35.2167 -91.2392 244° Southwest 333 383 36,000  Level Memphis Center
Sun 11:19:50 PM 35.1778 -91.3408 245° Southwest 333 383 36,000  Level Memphis Center
Sun 11:20:50 PM 35.1392 -91.4419 245° Southwest 332 382 36,000  Level Memphis Center
Sun 11:21:51 PM 35.1008 -91.5442 245° Southwest 332 382 36,000  Level Memphis Center
Sun 11:22:52 PM 35.0622 -91.6453 245° Southwest 332 382 36,000  Level Memphis Center
Sun 11:23:53 PM 35.0231 -91.7475 245° Southwest 332 382 36,000  Level Memphis Center
Sun 11:24:53 PM 34.9828 -91.8503 244° Southwest 332 382 36,000  Level Memphis Center
Sun 11:25:54 PM 34.9433 -91.9519 245° Southwest 332 382 36,000  Level Memphis Center
Sun 11:26:55 PM 34.9042 -92.0531 245° Southwest 332 382 36,000  Level Memphis Center
Sun 11:27:55 PM 34.8639 -92.1550 244° Southwest 332 382 36,000  Level Memphis Center
Sun 11:28:56 PM 34.8244 -92.2569 245° Southwest 332 382 36,000  Level Memphis Center
Sun 11:29:57 PM 34.7761 -92.3775 244° Southwest 332 382 36,000  Level Memphis Center
Sun 11:30:57 PM 34.7367 -92.4797 245° Southwest 332 382 36,000  Level Memphis Center
Sun 11:31:58 PM 34.6972 -92.5797 244° Southwest 332 382 36,000  Level Memphis Center
Sun 11:32:59 PM 34.6564 -92.6822 244° Southwest 333 383 36,000  Level Memphis Center
Sun 11:33:59 PM 34.6150 -92.7858 244° Southwest 336 387 36,000  Level Memphis Center
Sun 11:35:00 PM 34.5736 -92.8908 244° Southwest 340 391 36,000  Level Memphis Center
Sun 11:36:01 PM 34.5317 -92.9950 244° Southwest 340 391 36,000  Level Memphis Center
Sun 11:37:01 PM 34.4897 -93.0989 244° Southwest 342 394 36,000  Level Memphis Center
Sun 11:38:02 PM 34.4478 -93.2014 244° Southwest 342 394 36,000  Level Memphis Center
Sun 11:39:03 PM 34.4053 -93.3053 244° Southwest 342 394 36,000  Level Memphis Center
Sun 11:40:03 PM 34.3639 -93.4086 244° Southwest 342 394 36,000  Level Memphis Center
Sun 11:41:04 PM 34.3233 -93.5111 244° Southwest 342 394 36,000  Level Memphis Center
Sun 11:42:04 PM 34.2900 -93.6208 250° West 333 383 36,000  Level Memphis Center
Sun 11:43:05 PM 34.2622 -93.7272 252° West 333 383 36,000  Level Memphis Center
Sun 11:44:06 PM 34.2328 -93.8314 251° West 333 383 36,000  Level Memphis Center
Sun 11:45:06 PM 34.2042 -93.9375 252° West 333 383 36,000 -198 Level Memphis Center
Sun 11:46:07 PM 34.1750 -94.0411 251° West 333 383 35,600 -645 Descending Memphis Center
Sun 11:47:07 PM 34.1442 -94.1483 251° West 334 384 34,700 -893 Descending Memphis Center
Sun 11:48:08 PM 34.1139 -94.2539 251° West 335 386 33,800 -885 Descending Memphis Center
Sun 11:49:09 PM 34.0842 -94.3614 252° West 336 387 32,900 -893 Descending Memphis Center
Sun 11:50:09 PM 34.0544 -94.4686 252° West 336 387 32,000 -893 Descending Memphis Center
Sun 11:51:10 PM 34.0228 -94.5750 250° West 337 388 31,100 -869 Descending Memphis Center
Sun 11:52:34 PM 33.9806 -94.7275 252° West 342 394 29,900 -910 Descending Fort Worth Center
Sun 11:53:35 PM 33.9497 -94.8350 251° West 343 395 28,900 -984 Descending Fort Worth Center
Sun 11:54:36 PM 33.9131 -94.9631 251° West 342 394 27,900 -934 Descending Fort Worth Center
Sun 11:55:37 PM 33.8806 -95.0700 250° West 341 392 27,000 -885 Descending Fort Worth Center
Sun 11:56:38 PM 33.8486 -95.1767 250° West 341 392 26,100 -885 Descending Fort Worth Center
Sun 11:57:39 PM 33.8219 -95.2794 253° West 333 383 25,200 -893 Descending Fort Worth Center
Sun 11:58:39 PM 33.7897 -95.3831 250° West 331 381 24,300 -595 Descending Fort Worth Center
Sun 11:59:40 PM 33.7631 -95.4847 253° West 326 375 24,000 -148 Descending Fort Worth Center
Mon 12:00:41 AM 33.7336 -95.5861 251° West 325 374 24,000  Level Fort Worth Center
Mon 12:01:42 AM 33.6992 -95.7003 250° West 323 372 24,000  Level Fort Worth Center
Mon 12:02:43 AM 33.6661 -95.8081 250° West 338 389 24,000  Level Fort Worth Center
Mon 12:03:43 AM 33.6342 -95.9200 251° West 350 403 24,000 -298 Level Fort Worth Center
Mon 12:04:44 AM 33.5969 -96.0356 249° West 352 405 23,400 -1,230 Descending Fort Worth Center
Mon 12:05:45 AM 33.5644 -96.1439 250° West 345 397 21,500 -1,869 Descending Fort Worth Center
Mon 12:06:46 AM 33.5222 -96.2492 244° Southwest 356 410 19,600 -1,835 Descending Fort Worth Center
Mon 12:07:46 AM 33.4519 -96.3356 226° Southwest 363 418 17,800 -1,884 Descending Fort Worth Center
Mon 12:08:47 AM 33.3825 -96.4189 225° Southwest 355 409 15,800 -1,934 Descending Fort Worth Center
Mon 12:09:47 AM 33.3167 -96.5000 226° Southwest 343 395 13,900 -1,850 Descending Dallas / Fort Worth TRACON
Mon 12:10:47 AM 33.2500 -96.5833 226° Southwest 330 380 12,100 -1,450 Descending Dallas / Fort Worth TRACON
Mon 12:11:47 AM 33.1833 -96.6667 226° Southwest 354 407 11,000 -537 Descending Dallas / Fort Worth TRACON
Mon 12:12:50 AM 33.1081 -96.7436 221° Southwest 349 402 11,000  Level Fort Worth Center
Mon 12:13:41 AM 33.0500 -96.8167 227° Southwest 350 403 11,000 -54 Level Dallas / Fort Worth TRACON
Mon 12:14:41 AM 32.9833 -96.8833 220° Southwest 298 343 10,900 -1,053 Descending Dallas / Fort Worth TRACON
Mon 12:15:35 AM 32.9167 -96.9000 192° South 296 341 9,000 -2,211 Descending Dallas / Fort Worth TRACON
Mon 12:16:35 AM 32.8333 -96.9000 180° South 273 314 6,700 -2,238 Descending Dallas / Fort Worth TRACON
Mon 12:17:41 AM 32.7500 -96.9000 180° South 267 307 4,300 -1,286 Descending Dallas / Fort Worth TRACON
Mon 12:18:41 AM 32.7000 -96.9333 209° Southwest 217 250 4,000 -211 Descending Dallas / Fort Worth TRACON
Mon 12:19:35 AM 32.7167 -96.9833 292° West 206 237 3,900 -550 Descending Dallas / Fort Worth TRACON
Mon 12:20:41 AM 32.7667 -97.0167 331° Northwest 153 176 2,900 -857 Descending Dallas / Fort Worth TRACON
Mon 12:21:41 AM 32.8000 -97.0167 360° North 147 169 2,100 -750 Descending Dallas / Fort Worth TRACON
Mon 12:22:41 AM 32.8333 -97.0167 360° North 126 145 1,400 -700 Descending Dallas / Fort Worth TRACON

Login

Don't have an account? Register now (free) for customized features, flight alerts, and more!